createdAt,value
2023-05-02T00:01:56.288Z,101864.06
2023-05-02T00:04:23.365Z,101863.88
2023-05-02T00:06:51.661Z,101858.34
2023-05-02T00:09:18.658Z,101866.19
2023-05-02T00:11:45.501Z,101869.72
2023-05-02T00:14:14.778Z,101868.06
2023-05-02T00:16:43.591Z,101868.91
2023-05-02T00:19:10.329Z,101865.41
2023-05-02T00:21:37.031Z,101861.91
2023-05-02T00:24:04.283Z,101865.78
2023-05-02T00:26:31.830Z,101868.78
2023-05-02T00:28:59.029Z,101870.47
2023-05-02T00:31:27.110Z,101873.66
2023-05-02T00:33:53.801Z,101872.16
2023-05-02T00:36:20.586Z,101872.97
2023-05-02T00:38:47.336Z,101887.16
2023-05-02T00:41:14.178Z,101884.16
2023-05-02T00:43:41.121Z,101882.97
2023-05-02T00:46:08.479Z,101890.97
2023-05-02T00:48:37.125Z,101888.66
2023-05-02T00:51:08.964Z,101881.81
2023-05-02T00:53:35.791Z,101883.81
2023-05-02T00:56:04.220Z,101882.81
2023-05-02T00:58:31.297Z,101891.16
2023-05-02T01:01:09.328Z,101878.16
2023-05-02T01:03:44.478Z,101885.16
2023-05-02T01:06:21.461Z,101883.50
2023-05-02T01:08:56.205Z,101889.66
2023-05-02T01:11:34.458Z,101883.50
2023-05-02T01:14:05.413Z,101893.34
2023-05-02T01:16:41.570Z,101883.34
2023-05-02T01:19:26.932Z,101878.16
2023-05-02T01:21:57.755Z,101888.66
2023-05-02T01:24:29.772Z,101887.50
2023-05-02T01:27:08.048Z,101890.47
2023-05-02T01:29:38.744Z,101889.97
2023-05-02T01:32:08.143Z,101893.13
2023-05-02T01:34:38.828Z,101890.81
2023-05-02T01:37:10.380Z,101899.97
2023-05-02T01:39:40.307Z,101899.47
2023-05-02T01:42:07.396Z,101909.16
2023-05-02T01:44:36.846Z,101911.50
2023-05-02T01:47:07.935Z,101908.16
2023-05-02T01:49:37.276Z,101913.19
2023-05-02T01:52:07.908Z,101913.19
2023-05-02T01:54:37.859Z,101917.84
2023-05-02T01:57:07.346Z,101910.53
2023-05-02T01:59:37.150Z,101914.84
2023-05-02T02:02:06.840Z,101909.00
2023-05-02T02:04:35.667Z,101915.50
2023-05-02T02:07:04.257Z,101917.16
2023-05-02T02:09:31.460Z,101921.19
2023-05-02T02:12:06.405Z,101925.31
2023-05-02T02:14:35.103Z,101926.31
2023-05-02T02:17:10.038Z,101927.66
2023-05-02T02:19:39.667Z,101924.00
2023-05-02T02:22:07.921Z,101925.84
2023-05-02T02:24:36.775Z,101929.50
2023-05-02T02:27:04.166Z,101927.16
2023-05-02T02:29:32.906Z,101937.34
2023-05-02T02:31:59.917Z,101940.84
2023-05-02T02:34:28.661Z,101945.19
2023-05-02T02:37:00.720Z,101955.00
2023-05-02T02:39:41.644Z,101956.19
2023-05-02T02:42:14.508Z,101968.66
2023-05-02T02:44:52.682Z,101966.66
2023-05-02T02:47:27.330Z,101982.25
2023-05-02T02:50:10.772Z,101976.41
2023-05-02T02:52:48.761Z,101980.06
2023-05-02T02:55:24.487Z,101980.88
2023-05-02T02:57:59.300Z,101988.38
2023-05-02T03:00:28.371Z,101982.03
2023-05-02T03:02:56.627Z,101991.69
2023-05-02T03:05:25.449Z,101991.69
2023-05-02T03:07:52.488Z,101990.03
2023-05-02T03:10:21.936Z,101999.19
2023-05-02T03:12:49.095Z,102008.31
2023-05-02T03:15:29.062Z,102009.47
2023-05-02T03:17:57.641Z,102011.16
2023-05-02T03:20:26.121Z,102010.00
2023-05-02T03:22:55.465Z,102013.66
2023-05-02T03:25:22.353Z,102019.31
2023-05-02T03:27:49.492Z,102019.63
2023-05-02T03:30:16.262Z,102016.44
2023-05-02T03:32:43.180Z,102020.44
2023-05-02T03:35:10.264Z,102026.59
2023-05-02T03:37:41.915Z,102035.91
2023-05-02T03:40:08.736Z,102035.91
2023-05-02T03:42:41.219Z,102040.41
2023-05-02T03:45:08.708Z,102045.88
2023-05-02T03:47:35.439Z,102044.69
2023-05-02T03:50:03.392Z,102044.88
2023-05-02T03:52:31.821Z,102046.88
2023-05-02T03:55:01.294Z,102052.19
2023-05-02T03:57:30.362Z,102061.69
2023-05-02T03:59:57.684Z,102056.00
2023-05-02T04:02:25.581Z,102060.81
2023-05-02T04:04:52.588Z,102063.31
2023-05-02T04:07:20.148Z,102065.81
2023-05-02T04:09:46.966Z,102066.13
2023-05-02T04:12:16.133Z,102069.78
2023-05-02T04:14:42.782Z,102075.13
2023-05-02T04:17:10.303Z,102072.09
2023-05-02T04:19:37.224Z,102073.53
2023-05-02T04:22:04.108Z,102071.69
2023-05-02T04:24:31.173Z,102075.50
2023-05-02T04:26:58.117Z,102082.44
2023-05-02T04:29:26.198Z,102083.56
2023-05-02T04:31:53.807Z,102096.56
2023-05-02T04:34:21.175Z,102093.91
2023-05-02T04:36:49.262Z,102101.06
2023-05-02T04:39:16.018Z,102113.22
2023-05-02T04:41:43.242Z,102121.22
2023-05-02T04:44:10.071Z,102125.16
2023-05-02T04:46:38.286Z,102119.75
2023-05-02T04:49:05.177Z,102132.41
2023-05-02T04:51:31.968Z,102134.06
2023-05-02T04:53:58.601Z,102137.41
2023-05-02T04:56:27.070Z,102140.38
2023-05-02T04:58:53.962Z,102148.38
2023-05-02T05:01:20.701Z,102143.84
2023-05-02T05:03:49.158Z,102156.84
2023-05-02T05:06:16.068Z,102151.91
2023-05-02T05:08:43.012Z,102160.22
2023-05-02T05:11:09.733Z,102158.53
2023-05-02T05:13:36.461Z,102157.69
2023-05-02T05:16:03.961Z,102172.66
2023-05-02T05:18:32.966Z,102166.16
2023-05-02T05:21:01.040Z,102183.38
2023-05-02T05:23:29.281Z,102187.22
2023-05-02T05:25:55.853Z,102191.00
2023-05-02T05:28:22.582Z,102193.81
2023-05-02T05:30:49.226Z,102199.13
2023-05-02T05:33:16.043Z,102202.31
2023-05-02T05:35:42.826Z,102208.63
2023-05-02T05:38:11.051Z,102204.75
2023-05-02T05:40:37.758Z,102210.00
2023-05-02T05:43:04.789Z,102207.78
2023-05-02T05:45:31.529Z,102216.59
2023-05-02T05:47:58.490Z,102215.31
2023-05-02T05:50:25.233Z,102226.31
2023-05-02T05:52:52.103Z,102238.09
2023-05-02T05:55:20.219Z,102236.03
2023-05-02T05:57:46.902Z,102236.19
2023-05-02T06:00:14.886Z,102242.34
2023-05-02T06:02:41.835Z,102247.50
2023-05-02T06:05:08.856Z,102260.81
2023-05-02T06:07:35.722Z,102258.84
2023-05-02T06:10:02.688Z,102272.84
2023-05-02T06:12:31.158Z,102265.00
2023-05-02T06:14:57.836Z,102268.78
2023-05-02T06:17:24.608Z,102281.38
2023-05-02T06:19:51.439Z,102276.38
2023-05-02T06:22:18.184Z,102286.19
2023-05-02T06:24:44.830Z,102289.34
2023-05-02T06:27:11.525Z,102289.22
2023-05-02T06:29:39.558Z,102293.28
2023-05-02T06:32:06.606Z,102298.28
2023-05-02T06:34:34.168Z,102305.81
2023-05-02T06:37:01.174Z,102304.16
2023-05-02T06:39:27.854Z,102310.31
2023-05-02T06:41:57.024Z,102314.03
2023-05-02T06:44:23.794Z,102322.25
2023-05-02T06:46:52.046Z,102326.13
2023-05-02T06:49:18.764Z,102328.94
2023-05-02T06:51:45.437Z,102340.41
2023-05-02T06:54:12.786Z,102334.25
2023-05-02T06:56:39.771Z,102340.69
2023-05-02T06:59:07.508Z,102343.53
2023-05-02T07:01:34.308Z,102344.94
2023-05-02T07:04:05.770Z,102349.69
2023-05-02T07:06:32.896Z,102361.41
2023-05-02T07:08:59.740Z,102356.47
2023-05-02T07:11:28.300Z,102359.84
2023-05-02T07:13:57.908Z,102366.00
2023-05-02T07:16:24.912Z,102371.69
2023-05-02T07:18:51.657Z,102375.63
2023-05-02T07:21:19.779Z,102376.63
2023-05-02T07:23:46.499Z,102378.28
2023-05-02T07:26:13.749Z,102383.31
2023-05-02T07:28:42.887Z,102381.78
2023-05-02T07:31:09.602Z,102383.22
2023-05-02T07:33:36.520Z,102386.25
2023-05-02T07:36:03.438Z,102396.03
2023-05-02T07:38:31.487Z,102403.53
2023-05-02T07:40:59.081Z,102401.44
2023-05-02T07:43:26.440Z,102399.31
2023-05-02T07:45:56.298Z,102400.84
2023-05-02T07:48:23.731Z,102404.63
2023-05-02T07:50:52.067Z,102412.09
2023-05-02T07:53:19.211Z,102420.91
2023-05-02T07:55:47.776Z,102413.44
2023-05-02T07:58:15.264Z,102419.47
2023-05-02T08:00:42.055Z,102405.56
2023-05-02T08:03:08.991Z,102404.56
2023-05-02T08:05:36.165Z,102410.28
2023-05-02T08:08:02.976Z,102410.72
2023-05-02T08:10:29.628Z,102421.84
2023-05-02T08:12:57.616Z,102431.09
2023-05-02T08:15:24.619Z,102434.06
2023-05-02T08:17:51.689Z,102443.09
2023-05-02T08:20:18.462Z,102444.25
2023-05-02T08:22:45.524Z,102443.78
2023-05-02T08:25:12.184Z,102446.13
2023-05-02T08:27:39.726Z,102450.09
2023-05-02T08:30:09.913Z,102462.69
2023-05-02T08:32:38.407Z,102457.78
2023-05-02T08:35:07.393Z,102467.38
2023-05-02T08:37:35.172Z,102460.63
2023-05-02T08:40:02.364Z,102465.34
2023-05-02T08:42:33.084Z,102468.84
2023-05-02T08:45:00.730Z,102473.31
2023-05-02T08:47:31.905Z,102473.28
2023-05-02T08:50:00.794Z,102468.31
2023-05-02T08:52:29.193Z,102473.38
2023-05-02T08:54:56.213Z,102480.47
2023-05-02T08:57:22.900Z,102485.78
2023-05-02T08:59:49.944Z,102479.69
2023-05-02T09:02:37.515Z,102485.00
2023-05-02T09:05:08.156Z,102488.88
2023-05-02T09:07:44.616Z,102485.84
2023-05-02T09:10:12.073Z,102490.78
2023-05-02T09:12:39.412Z,102499.44
2023-05-02T09:15:10.672Z,102495.97
2023-05-02T09:17:44.910Z,102486.31
2023-05-02T09:20:14.878Z,102510.94
2023-05-02T09:22:50.167Z,102515.69
2023-05-02T09:25:17.226Z,102509.28
2023-05-02T09:27:52.050Z,102524.44
2023-05-02T09:30:20.920Z,102515.00
2023-05-02T09:32:51.225Z,102513.56
2023-05-02T09:35:23.841Z,102515.09
2023-05-02T09:37:54.558Z,102508.78
2023-05-02T09:40:22.117Z,102511.13
2023-05-02T09:42:51.716Z,102519.38
2023-05-02T09:45:22.873Z,102524.78
2023-05-02T09:47:50.016Z,102532.03
2023-05-02T09:50:35.022Z,102531.66
2023-05-02T09:53:04.183Z,102529.97
2023-05-02T09:55:32.342Z,102529.75
2023-05-02T09:57:59.510Z,102533.09
2023-05-02T10:00:39.795Z,102525.00
2023-05-02T10:03:08.225Z,102534.22
2023-05-02T10:05:39.008Z,102539.03
2023-05-02T10:08:06.846Z,102533.16
2023-05-02T10:10:35.958Z,102537.84
2023-05-02T10:13:06.237Z,102533.84
2023-05-02T10:15:39.523Z,102537.00
2023-05-02T10:18:14.339Z,102533.72
2023-05-02T10:20:49.033Z,102536.66
2023-05-02T10:23:16.917Z,102523.59
2023-05-02T10:25:43.990Z,102524.38
2023-05-02T10:28:11.355Z,102531.81
2023-05-02T10:30:41.311Z,102521.88
2023-05-02T10:33:08.295Z,102533.53
2023-05-02T10:35:39.987Z,102531.06
2023-05-02T10:38:08.467Z,102531.50
2023-05-02T10:40:35.707Z,102532.38
2023-05-02T10:43:04.944Z,102532.00
2023-05-02T10:45:33.690Z,102533.47
2023-05-02T10:48:17.752Z,102533.72
2023-05-02T10:50:49.108Z,102531.75
2023-05-02T10:53:24.583Z,102537.63
2023-05-02T10:56:15.706Z,102540.31
2023-05-02T10:58:43.168Z,102539.00
2023-05-02T11:01:37.654Z,102538.81
2023-05-02T11:04:06.251Z,102549.16
2023-05-02T11:06:35.837Z,102538.09
2023-05-02T11:09:32.945Z,102541.75
2023-05-02T11:12:01.553Z,102553.47
2023-05-02T11:14:47.270Z,102540.47
2023-05-02T11:17:17.423Z,102540.03
2023-05-02T11:20:28.870Z,102537.88
2023-05-02T11:22:58.314Z,102529.72
2023-05-02T11:25:40.754Z,102534.72
2023-05-02T11:28:28.507Z,102534.19
2023-05-02T11:30:57.938Z,102541.69
2023-05-02T11:33:24.844Z,102542.38
2023-05-02T11:35:51.899Z,102548.34
2023-05-02T11:38:21.663Z,102541.16
2023-05-02T11:40:59.176Z,102553.16
2023-05-02T11:43:29.386Z,102548.13
2023-05-02T11:46:00.650Z,102547.25
2023-05-02T11:48:28.254Z,102552.19
2023-05-02T11:50:56.957Z,102545.72
2023-05-02T11:53:26.221Z,102548.25
2023-05-02T11:55:55.263Z,102543.44
2023-05-02T11:58:23.652Z,102547.47
2023-05-02T12:00:52.857Z,102548.47
2023-05-02T12:03:30.307Z,102550.84
2023-05-02T12:05:58.650Z,102553.66
2023-05-02T12:08:27.014Z,102546.28
2023-05-02T12:10:55.102Z,102556.00
2023-05-02T12:13:24.702Z,102558.84
2023-05-02T12:15:53.264Z,102558.22
2023-05-02T12:18:23.891Z,102565.22
2023-05-02T12:20:53.362Z,102563.38
2023-05-02T12:23:20.921Z,102563.19
2023-05-02T12:25:49.155Z,102563.00
2023-05-02T12:28:18.352Z,102571.22
2023-05-02T12:30:48.436Z,102577.22
2023-05-02T12:33:16.765Z,102584.06
2023-05-02T12:35:45.975Z,102574.72
2023-05-02T12:38:16.489Z,102582.94
2023-05-02T12:40:52.326Z,102588.31
2023-05-02T12:43:19.918Z,102584.47
2023-05-02T12:45:48.504Z,102584.75
2023-05-02T12:48:22.314Z,102589.75
2023-05-02T12:50:49.577Z,102592.78
2023-05-02T12:53:17.856Z,102593.28
2023-05-02T12:55:46.946Z,102585.78
2023-05-02T12:58:16.049Z,102590.66
2023-05-02T13:00:44.225Z,102603.22
2023-05-02T13:03:12.516Z,102599.69
2023-05-02T13:05:39.406Z,102599.34
2023-05-02T13:08:06.220Z,102597.00
2023-05-02T13:10:35.923Z,102606.22
2023-05-02T13:13:04.461Z,102595.19
2023-05-02T13:15:31.530Z,102607.56
2023-05-02T13:17:58.396Z,102618.25
2023-05-02T13:20:26.849Z,102613.38
2023-05-02T13:22:53.683Z,102613.38
2023-05-02T13:25:20.452Z,102608.66
2023-05-02T13:27:48.616Z,102609.22
2023-05-02T13:30:15.415Z,102603.84
2023-05-02T13:32:42.183Z,102616.91
2023-05-02T13:35:14.352Z,102613.56
2023-05-02T13:37:41.949Z,102614.91
2023-05-02T13:40:09.301Z,102621.59
2023-05-02T13:42:36.286Z,102611.72
2023-05-02T13:45:06.725Z,102606.22
2023-05-02T13:47:33.577Z,102604.53
2023-05-02T13:50:00.375Z,102598.34
2023-05-02T13:52:27.655Z,102601.34
2023-05-02T13:54:54.310Z,102604.53
2023-05-02T13:57:21.009Z,102584.78
2023-05-02T13:59:47.677Z,102599.34
2023-05-02T14:02:17.542Z,102595.66
2023-05-02T14:04:44.270Z,102589.94
2023-05-02T14:07:11.356Z,102593.13
2023-05-02T14:09:38.107Z,102591.59
2023-05-02T14:12:04.990Z,102591.09
2023-05-02T14:14:31.781Z,102593.75
2023-05-02T14:17:00.835Z,102599.94
2023-05-02T14:19:29.091Z,102601.06
2023-05-02T14:21:55.752Z,102595.22
2023-05-02T14:24:23.888Z,102601.03
2023-05-02T14:26:51.078Z,102592.00
2023-05-02T14:29:18.559Z,102595.31
2023-05-02T14:31:46.112Z,102599.19
2023-05-02T14:34:13.255Z,102599.38
2023-05-02T14:36:41.662Z,102601.56
2023-05-02T14:39:08.379Z,102591.97
2023-05-02T14:41:35.125Z,102593.00
2023-05-02T14:44:06.414Z,102593.31
2023-05-02T14:46:36.220Z,102601.03
2023-05-02T14:49:02.955Z,102606.09
2023-05-02T14:51:29.825Z,102599.88
2023-05-02T14:53:57.926Z,102598.69
2023-05-02T14:56:26.035Z,102607.69
2023-05-02T14:58:52.835Z,102613.91
2023-05-02T15:01:22.676Z,102611.47
2023-05-02T15:04:05.126Z,102610.94
2023-05-02T15:06:33.821Z,102599.75
2023-05-02T15:09:02.418Z,102608.91
2023-05-02T15:11:29.144Z,102597.97
2023-05-02T15:13:59.475Z,102613.44
2023-05-02T15:16:29.406Z,102603.44
2023-05-02T15:18:56.916Z,102608.63
2023-05-02T15:21:23.771Z,102606.47
2023-05-02T15:23:50.851Z,102603.63
2023-05-02T15:26:21.261Z,102609.50
2023-05-02T15:28:49.082Z,102601.28
2023-05-02T15:31:17.187Z,102605.75
2023-05-02T15:33:45.373Z,102604.44
2023-05-02T15:36:12.031Z,102605.31
2023-05-02T15:38:42.848Z,102612.88
2023-05-02T15:41:11.068Z,102615.91
2023-05-02T15:43:39.200Z,102614.91
2023-05-02T15:46:05.989Z,102614.56
2023-05-02T15:48:33.583Z,102609.56
2023-05-02T15:51:00.607Z,102615.06
2023-05-02T15:53:27.656Z,102623.59
2023-05-02T15:55:54.761Z,102624.94
2023-05-02T15:58:21.873Z,102624.75
2023-05-02T16:00:51.837Z,102623.03
2023-05-02T16:03:18.663Z,102633.47
2023-05-02T16:05:46.564Z,102636.09
2023-05-02T16:08:13.514Z,102633.56
2023-05-02T16:10:40.932Z,102634.06
2023-05-02T16:13:07.794Z,102644.63
2023-05-02T16:15:34.454Z,102632.91
2023-05-02T16:18:02.496Z,102637.59
2023-05-02T16:20:29.293Z,102633.25
2023-05-02T16:22:56.080Z,102634.56
2023-05-02T16:25:22.718Z,102641.59
2023-05-02T16:27:49.431Z,102641.94
2023-05-02T16:30:19.066Z,102635.25
2023-05-02T16:32:45.892Z,102640.94
2023-05-02T16:35:14.349Z,102640.66
2023-05-02T16:37:42.027Z,102639.50
2023-05-02T16:40:10.102Z,102641.81
2023-05-02T16:42:37.025Z,102638.25
2023-05-02T16:45:04.274Z,102631.25
2023-05-02T16:47:31.882Z,102632.53
2023-05-02T16:50:01.646Z,102628.19
2023-05-02T16:52:30.023Z,102634.69
2023-05-02T16:54:56.802Z,102641.38
2023-05-02T16:57:23.489Z,102646.53
2023-05-02T16:59:54.086Z,102641.56
2023-05-02T17:02:22.147Z,102648.25
2023-05-02T17:04:50.099Z,102644.25
2023-05-02T17:07:17.074Z,102638.38
2023-05-02T17:09:45.458Z,102647.25
2023-05-02T17:12:12.852Z,102655.41
2023-05-02T17:14:42.239Z,102656.56
2023-05-02T17:17:09.597Z,102660.91
2023-05-02T17:19:36.748Z,102651.84
2023-05-02T17:22:05.380Z,102656.66
2023-05-02T17:24:34.089Z,102656.81
2023-05-02T17:27:02.789Z,102660.31
2023-05-02T17:29:29.677Z,102668.72
2023-05-02T17:32:00.499Z,102674.22
2023-05-02T17:34:28.589Z,102676.91
2023-05-02T17:36:56.079Z,102669.03
2023-05-02T17:39:22.959Z,102679.69
2023-05-02T17:41:49.925Z,102675.63
2023-05-02T17:44:20.882Z,102683.09
2023-05-02T17:46:47.991Z,102679.56
2023-05-02T17:49:14.614Z,102676.00
2023-05-02T17:51:41.485Z,102670.81
2023-05-02T17:54:09.142Z,102675.66
2023-05-02T17:56:37.441Z,102670.09
2023-05-02T17:59:07.449Z,102670.56
2023-05-02T18:01:36.119Z,102683.56
2023-05-02T18:04:04.134Z,102696.22
2023-05-02T18:06:32.021Z,102696.13
2023-05-02T18:08:59.832Z,102702.56
2023-05-02T18:11:27.789Z,102697.63
2023-05-02T18:13:55.854Z,102705.91
2023-05-02T18:16:23.775Z,102701.56
2023-05-02T18:18:51.816Z,102719.72
2023-05-02T18:21:22.474Z,102717.50
2023-05-02T18:23:49.513Z,102723.78
2023-05-02T18:26:16.193Z,102733.09
2023-05-02T18:28:46.028Z,102725.59
2023-05-02T18:31:16.509Z,102735.06
2023-05-02T18:33:43.231Z,102733.13
2023-05-02T18:36:11.252Z,102727.16
2023-05-02T18:38:38.752Z,102717.81
2023-05-02T18:41:05.393Z,102719.22
2023-05-02T18:43:33.622Z,102720.66
2023-05-02T18:46:00.475Z,102721.94
2023-05-02T18:48:27.588Z,102723.06
2023-05-02T18:50:56.299Z,102727.69
2023-05-02T18:53:26.317Z,102727.28
2023-05-02T18:55:54.888Z,102729.56
2023-05-02T18:58:22.559Z,102723.41
2023-05-02T19:00:50.624Z,102725.34
2023-05-02T19:03:19.214Z,102725.63
2023-05-02T19:05:46.437Z,102732.22
2023-05-02T19:08:13.242Z,102732.53
2023-05-02T19:10:41.355Z,102733.91
2023-05-02T19:13:08.040Z,102743.34
2023-05-02T19:15:34.871Z,102752.59
2023-05-02T19:18:02.202Z,102760.16
2023-05-02T19:20:30.170Z,102760.06
2023-05-02T19:23:14.780Z,102747.88
2023-05-02T19:25:46.681Z,102754.59
2023-05-02T19:28:15.627Z,102757.41
2023-05-02T19:30:42.713Z,102755.84
2023-05-02T19:33:09.487Z,102758.81
2023-05-02T19:35:36.618Z,102764.13
2023-05-02T19:38:03.447Z,102763.56
2023-05-02T19:40:30.221Z,102764.41
2023-05-02T19:42:58.277Z,102772.69
2023-05-02T19:45:25.152Z,102774.78
2023-05-02T19:47:52.627Z,102771.56
2023-05-02T19:50:20.069Z,102780.66
2023-05-02T19:52:46.750Z,102781.09
2023-05-02T19:55:13.771Z,102779.69
2023-05-02T19:57:41.377Z,102778.97
2023-05-02T20:00:12.746Z,102788.63
2023-05-02T20:02:39.812Z,102792.97
2023-05-02T20:05:07.642Z,102794.81
2023-05-02T20:07:34.400Z,102785.13
2023-05-02T20:10:01.603Z,102790.88
2023-05-02T20:12:28.435Z,102795.78
2023-05-02T20:14:55.354Z,102784.69
2023-05-02T20:17:23.523Z,102788.88
2023-05-02T20:19:50.179Z,102794.63
2023-05-02T20:22:18.174Z,102799.22
2023-05-02T20:24:44.834Z,102796.16
2023-05-02T20:27:11.911Z,102802.88
2023-05-02T20:29:38.714Z,102801.59
2023-05-02T20:32:06.033Z,102809.84
2023-05-02T20:34:40.317Z,102805.78
2023-05-02T20:37:07.159Z,102812.44
2023-05-02T20:39:33.905Z,102810.06
2023-05-02T20:42:02.320Z,102804.88
2023-05-02T20:44:33.386Z,102814.38
2023-05-02T20:47:00.119Z,102820.78
2023-05-02T20:49:30.770Z,102819.25
2023-05-02T20:52:04.425Z,102823.00
2023-05-02T20:54:32.859Z,102819.88
2023-05-02T20:57:00.857Z,102810.22
2023-05-02T20:59:27.516Z,102813.28
2023-05-02T21:01:55.691Z,102820.41
2023-05-02T21:04:22.507Z,102819.56
2023-05-02T21:06:49.496Z,102823.06
2023-05-02T21:09:17.794Z,102827.69
2023-05-02T21:11:44.562Z,102831.56
2023-05-02T21:14:11.828Z,102825.16
2023-05-02T21:16:38.563Z,102820.91
2023-05-02T21:19:06.787Z,102830.16
2023-05-02T21:21:33.638Z,102837.41
2023-05-02T21:24:00.784Z,102833.47
2023-05-02T21:26:29.073Z,102830.06
2023-05-02T21:28:55.798Z,102826.56
2023-05-02T21:31:22.562Z,102830.06
2023-05-02T21:33:51.353Z,102834.41
2023-05-02T21:36:18.360Z,102828.78
2023-05-02T21:38:45.142Z,102830.88
2023-05-02T21:41:11.823Z,102829.31
2023-05-02T21:43:41.619Z,102832.22
2023-05-02T21:46:10.697Z,102833.34
2023-05-02T21:48:38.138Z,102838.34
2023-05-02T21:51:07.454Z,102839.28
2023-05-02T21:53:34.643Z,102842.91
2023-05-02T21:56:02.614Z,102844.00
2023-05-02T21:58:29.809Z,102842.34
2023-05-02T22:01:01.094Z,102837.28
2023-05-02T22:03:28.154Z,102841.88
2023-05-02T22:05:57.531Z,102840.19
2023-05-02T22:08:24.814Z,102842.16
2023-05-02T22:10:51.602Z,102835.28
2023-05-02T22:13:18.515Z,102835.28
2023-05-02T22:15:47.273Z,102832.63
2023-05-02T22:18:16.867Z,102840.00
2023-05-02T22:20:45.602Z,102834.81
2023-05-02T22:23:13.061Z,102832.28
2023-05-02T22:25:41.481Z,102821.78
2023-05-02T22:28:11.516Z,102814.22
2023-05-02T22:30:39.214Z,102828.59
2023-05-02T22:33:10.081Z,102828.84
2023-05-02T22:35:38.538Z,102832.47
2023-05-02T22:38:06.614Z,102826.84
2023-05-02T22:40:33.761Z,102823.44
2023-05-02T22:43:00.907Z,102830.69
2023-05-02T22:45:27.967Z,102817.81
2023-05-02T22:47:54.865Z,102821.66
2023-05-02T22:50:22.282Z,102827.25
2023-05-02T22:52:51.100Z,102827.38
2023-05-02T22:55:18.061Z,102824.97
2023-05-02T22:57:45.034Z,102825.94
2023-05-02T23:00:12.565Z,102819.91
2023-05-02T23:02:39.432Z,102813.75
2023-05-02T23:05:07.082Z,102816.53
2023-05-02T23:07:35.097Z,102819.19
2023-05-02T23:10:03.532Z,102813.88
2023-05-02T23:12:30.422Z,102827.25
2023-05-02T23:14:57.262Z,102825.72
2023-05-02T23:17:24.035Z,102828.50
2023-05-02T23:19:51.151Z,102825.97
2023-05-02T23:22:17.956Z,102828.72
2023-05-02T23:24:46.229Z,102827.91
2023-05-02T23:27:14.894Z,102825.38
2023-05-02T23:29:41.664Z,102820.78
2023-05-02T23:32:08.553Z,102820.91
2023-05-02T23:34:39.033Z,102828.16
2023-05-02T23:37:07.770Z,102831.88
2023-05-02T23:39:34.559Z,102834.69
2023-05-02T23:42:03.747Z,102833.09
2023-05-02T23:44:32.009Z,102832.25
2023-05-02T23:46:58.954Z,102846.97
2023-05-02T23:49:25.724Z,102849.75
2023-05-02T23:51:52.463Z,102859.63
2023-05-02T23:54:19.150Z,102855.66
2023-05-02T23:56:46.440Z,102859.66
2023-05-02T23:59:13.119Z,102859.88
